createdAt,value
2019-03-03T00:03:33.339Z,7.40
2019-03-03T00:08:36.913Z,7.07
2019-03-03T00:13:40.007Z,5.70
2019-03-03T00:18:43.405Z,4.57
2019-03-03T00:23:46.485Z,6.63
2019-03-03T00:28:49.546Z,8.30
2019-03-03T00:33:52.622Z,9.17
2019-03-03T00:38:58.085Z,7.70
2019-03-03T00:44:03.423Z,6.30
2019-03-03T00:49:20.472Z,8.57
2019-03-03T00:54:27.936Z,6.50
2019-03-03T00:59:35.063Z,9.70
2019-03-03T01:04:42.228Z,8.60
2019-03-03T01:10:05.341Z,7.67
2019-03-03T01:15:22.591Z,8.93
2019-03-03T01:20:36.757Z,6.70
2019-03-03T01:25:40.163Z,6.63
2019-03-03T01:30:43.986Z,9.70
2019-03-03T01:35:47.310Z,8.10
2019-03-03T01:40:50.725Z,5.77
2019-03-03T01:45:54.149Z,8.47
2019-03-03T01:50:57.536Z,7.40
2019-03-03T01:56:00.601Z,7.47
2019-03-03T02:01:04.337Z,6.80
2019-03-03T02:06:07.813Z,8.03
2019-03-03T02:11:12.692Z,11.17
2019-03-03T02:16:16.362Z,7.90
2019-03-03T02:21:20.082Z,6.60
2019-03-03T02:26:23.158Z,11.47
2019-03-03T02:31:26.851Z,8.93
2019-03-03T02:36:29.957Z,6.97
2019-03-03T02:41:33.355Z,7.97
2019-03-03T02:46:36.752Z,7.37
2019-03-03T02:52:05.598Z,9.90
2019-03-03T02:57:08.658Z,9.30
2019-03-03T03:02:13.373Z,8.17
2019-03-03T03:07:18.375Z,6.80
2019-03-03T03:12:29.670Z,6.87
2019-03-03T03:17:40.578Z,7.47
2019-03-03T03:22:45.286Z,9.37
2019-03-03T03:27:55.799Z,10.03
2019-03-03T03:33:06.830Z,10.07
2019-03-03T03:38:14.673Z,5.40
2019-03-03T03:43:19.393Z,7.27
2019-03-03T03:48:39.669Z,8.10
2019-03-03T03:53:50.650Z,7.33
2019-03-03T03:59:01.166Z,7.43
2019-03-03T04:04:05.965Z,5.67
2019-03-03T04:09:18.313Z,7.60
2019-03-03T04:14:26.220Z,7.93
2019-03-03T04:19:31.288Z,11.50
2019-03-03T04:24:48.535Z,7.30
2019-03-03T04:29:56.221Z,14.00
2019-03-03T04:35:06.998Z,10.33
2019-03-03T04:40:11.714Z,10.23
2019-03-03T04:45:22.531Z,13.07
2019-03-03T04:50:45.785Z,10.67
2019-03-03T04:56:02.549Z,10.73
2019-03-03T05:01:13.563Z,12.90
2019-03-03T05:06:24.646Z,10.90
2019-03-03T05:12:21.184Z,9.57
2019-03-03T05:17:41.246Z,11.43
2019-03-03T05:22:44.322Z,12.00
2019-03-03T05:27:48.045Z,9.53
2019-03-03T05:32:51.768Z,12.20
2019-03-03T05:37:55.174Z,10.70
2019-03-03T05:42:58.898Z,7.93
2019-03-03T05:48:02.306Z,11.67
2019-03-03T05:53:05.959Z,8.33
2019-03-03T05:58:09.413Z,10.40
2019-03-03T06:03:12.910Z,9.13
2019-03-03T06:08:16.325Z,11.90
2019-03-03T06:13:19.402Z,13.20
2019-03-03T06:18:22.485Z,11.90
2019-03-03T06:23:25.622Z,13.50
2019-03-03T06:28:28.747Z,6.47
2019-03-03T06:33:32.443Z,9.80
2019-03-03T06:38:35.892Z,10.93
2019-03-03T06:43:39.277Z,7.57
2019-03-03T06:48:42.358Z,10.20
2019-03-03T06:53:45.441Z,12.40
2019-03-03T06:58:48.509Z,9.83
2019-03-03T07:03:51.570Z,9.93
2019-03-03T07:08:54.891Z,7.97
2019-03-03T07:13:58.006Z,7.80
2019-03-03T07:19:01.740Z,8.43
2019-03-03T07:24:05.163Z,12.63
2019-03-03T07:29:08.240Z,11.53
2019-03-03T07:34:11.599Z,9.40
2019-03-03T07:39:15.818Z,9.33
2019-03-03T07:44:18.894Z,9.73
2019-03-03T07:49:22.335Z,11.00
2019-03-03T07:54:26.062Z,10.37
2019-03-03T07:59:29.478Z,10.83
2019-03-03T08:04:32.546Z,11.10
2019-03-03T08:09:35.962Z,12.33
2019-03-03T08:14:39.382Z,11.03
2019-03-03T08:19:42.837Z,9.77
2019-03-03T08:24:46.547Z,9.33
2019-03-03T08:29:49.866Z,13.73
2019-03-03T08:34:53.574Z,10.03
2019-03-03T08:39:56.660Z,10.67
2019-03-03T08:45:17.973Z,6.40
2019-03-03T08:50:25.816Z,8.03
2019-03-03T08:55:36.568Z,6.60
2019-03-03T09:00:53.692Z,7.80
2019-03-03T09:06:04.575Z,7.40
2019-03-03T09:11:25.601Z,4.57
2019-03-03T09:16:36.486Z,7.67
2019-03-03T09:21:57.790Z,5.97
2019-03-03T09:27:05.561Z,4.53
2019-03-03T09:32:10.879Z,6.13
2019-03-03T09:37:15.603Z,4.80
2019-03-03T09:42:23.754Z,6.67
2019-03-03T09:47:45.443Z,3.07
2019-03-03T09:52:50.499Z,5.07
2019-03-03T09:57:55.817Z,3.80
2019-03-03T10:03:06.812Z,4.57
2019-03-03T10:08:14.202Z,3.70
2019-03-03T10:13:25.058Z,4.13
2019-03-03T10:18:49.286Z,3.30
2019-03-03T10:23:59.817Z,4.43
2019-03-03T10:29:05.246Z,6.27
2019-03-03T10:34:19.515Z,3.73
2019-03-03T10:39:33.362Z,5.07
2019-03-03T10:44:38.227Z,4.40
2019-03-03T10:49:44.200Z,4.63
2019-03-03T10:54:58.798Z,2.60
2019-03-03T11:00:19.994Z,2.10
2019-03-03T11:05:27.478Z,2.97
2019-03-03T11:10:32.202Z,3.57
2019-03-03T11:15:47.109Z,4.03
2019-03-03T11:20:57.995Z,2.50
2019-03-03T11:26:08.887Z,3.30
2019-03-03T11:31:25.980Z,2.03
2019-03-03T11:36:31.102Z,2.17
2019-03-03T11:41:52.557Z,1.83
2019-03-03T11:47:14.766Z,2.17
2019-03-03T11:52:28.195Z,2.53
2019-03-03T11:57:33.228Z,1.60
2019-03-03T12:02:53.598Z,1.47
2019-03-03T12:07:53.776Z,1.97
2019-03-03T12:13:08.045Z,3.40
2019-03-03T12:18:13.701Z,2.70
2019-03-03T12:23:35.060Z,3.27
2019-03-03T12:28:57.941Z,1.97
2019-03-03T12:34:05.538Z,3.20
2019-03-03T12:39:11.102Z,3.03
2019-03-03T12:44:16.158Z,1.87
2019-03-03T12:49:30.424Z,1.63
2019-03-03T12:54:35.150Z,3.17
2019-03-03T12:59:40.208Z,2.30
2019-03-03T13:05:01.566Z,2.77
2019-03-03T13:10:08.454Z,4.13
2019-03-03T13:15:23.343Z,3.33
2019-03-03T13:20:28.296Z,2.33
2019-03-03T13:25:39.036Z,2.60
2019-03-03T13:30:58.976Z,4.53
2019-03-03T13:36:10.176Z,3.20
2019-03-03T13:41:18.698Z,3.27
2019-03-03T13:46:21.789Z,2.60
2019-03-03T13:51:25.428Z,2.20
2019-03-03T13:56:28.911Z,3.40
2019-03-03T14:01:32.263Z,2.67
2019-03-03T14:06:36.802Z,1.70
2019-03-03T14:11:39.879Z,3.20
2019-03-03T14:16:42.974Z,3.47
2019-03-03T14:21:46.058Z,1.70
2019-03-03T14:26:49.494Z,2.33
2019-03-03T14:31:53.144Z,1.60
2019-03-03T14:36:56.490Z,2.37
2019-03-03T14:41:59.573Z,1.60
2019-03-03T14:47:02.900Z,2.63
2019-03-03T14:52:06.339Z,2.83
2019-03-03T14:57:09.482Z,2.03
2019-03-03T15:02:12.578Z,3.87
2019-03-03T15:07:16.870Z,5.20
2019-03-03T15:12:20.684Z,2.67
2019-03-03T15:17:23.834Z,5.17
2019-03-03T15:22:27.235Z,4.20
2019-03-03T15:27:30.570Z,4.80
2019-03-03T15:32:33.655Z,5.13
2019-03-03T15:37:36.806Z,4.43
2019-03-03T15:42:40.890Z,6.27
2019-03-03T15:47:44.286Z,4.03
2019-03-03T15:52:48.103Z,4.00
2019-03-03T15:57:51.526Z,5.43
2019-03-03T16:02:54.963Z,4.63
2019-03-03T16:07:58.121Z,5.87
2019-03-03T16:13:03.672Z,7.03
2019-03-03T16:18:06.382Z,8.60
2019-03-03T16:23:10.123Z,4.57
2019-03-03T16:28:13.843Z,7.50
2019-03-03T16:33:20.444Z,6.47
2019-03-03T16:38:22.310Z,6.77
2019-03-03T16:43:25.718Z,7.47
2019-03-03T16:48:28.797Z,6.67
2019-03-03T16:53:32.162Z,6.90
2019-03-03T16:58:37.831Z,10.43
2019-03-03T17:03:40.916Z,11.33
2019-03-03T17:08:44.322Z,8.80
2019-03-03T17:13:47.974Z,7.53
2019-03-03T17:18:51.790Z,8.03
2019-03-03T17:23:55.515Z,8.43
2019-03-03T17:28:58.934Z,10.83
2019-03-03T17:34:02.349Z,8.53
2019-03-03T17:39:05.843Z,9.67
2019-03-03T17:44:09.280Z,6.43
2019-03-03T17:49:12.804Z,7.27
2019-03-03T17:54:16.236Z,7.33
2019-03-03T17:59:19.324Z,6.73
2019-03-03T18:04:23.037Z,10.20
2019-03-03T18:09:26.452Z,10.80
2019-03-03T18:14:29.526Z,9.00
2019-03-03T18:19:32.986Z,8.70
2019-03-03T18:24:36.702Z,9.17
2019-03-03T18:29:40.423Z,9.00
2019-03-03T18:34:43.837Z,7.47
2019-03-03T18:39:47.251Z,11.57
2019-03-03T18:44:50.970Z,9.10
2019-03-03T18:49:54.382Z,8.23
2019-03-03T18:54:58.033Z,8.97
2019-03-03T19:00:01.734Z,9.13
2019-03-03T19:05:06.484Z,8.47
2019-03-03T19:10:15.401Z,10.87
2019-03-03T19:15:20.242Z,9.23
2019-03-03T19:20:23.715Z,7.27
2019-03-03T19:25:27.150Z,12.57
2019-03-03T19:30:30.803Z,14.47
2019-03-03T19:35:34.261Z,7.00
2019-03-03T19:40:37.450Z,7.40
2019-03-03T19:45:43.569Z,7.90
2019-03-03T19:50:46.971Z,8.20
2019-03-03T19:55:50.382Z,5.73
2019-03-03T20:00:53.446Z,7.60
2019-03-03T20:05:57.658Z,5.43
2019-03-03T20:11:01.190Z,8.10
2019-03-03T20:16:04.582Z,6.67
2019-03-03T20:21:07.984Z,5.83
2019-03-03T20:26:11.370Z,5.20
2019-03-03T20:31:15.175Z,4.40
2019-03-03T20:36:18.298Z,4.77
2019-03-03T20:41:22.027Z,4.83
2019-03-03T20:46:25.730Z,4.77
2019-03-03T20:51:29.068Z,5.13
2019-03-03T20:56:32.516Z,4.17
2019-03-03T21:01:35.590Z,3.33
2019-03-03T21:06:39.295Z,3.07
2019-03-03T21:11:42.443Z,4.03
2019-03-03T21:16:45.514Z,3.47
2019-03-03T21:21:49.031Z,2.93
2019-03-03T21:26:52.439Z,3.20
2019-03-03T21:31:56.084Z,3.03
2019-03-03T21:36:59.782Z,4.50
2019-03-03T21:42:02.895Z,3.57
2019-03-03T21:47:06.541Z,3.50
2019-03-03T21:52:09.614Z,3.67
2019-03-03T21:57:12.943Z,3.70
2019-03-03T22:02:16.418Z,5.33
2019-03-03T22:07:20.484Z,5.70
2019-03-03T22:12:23.896Z,5.00
2019-03-03T22:17:27.355Z,5.10
2019-03-03T22:22:30.732Z,4.93
2019-03-03T22:27:34.435Z,6.67
2019-03-03T22:32:37.761Z,4.97
2019-03-03T22:37:41.939Z,6.30
2019-03-03T22:42:45.603Z,4.70
2019-03-03T22:47:49.327Z,3.93
2019-03-03T22:52:53.146Z,5.60
2019-03-03T22:57:56.579Z,4.20
2019-03-03T23:02:59.966Z,5.97
2019-03-03T23:08:06.503Z,5.80
2019-03-03T23:13:12.982Z,5.73
2019-03-03T23:18:25.273Z,5.83
2019-03-03T23:23:46.975Z,6.60
2019-03-03T23:28:50.047Z,4.77
2019-03-03T23:33:53.447Z,4.93
2019-03-03T23:38:56.926Z,5.43
2019-03-03T23:44:00.327Z,4.93
2019-03-03T23:49:03.630Z,4.37
2019-03-03T23:54:07.030Z,4.57
2019-03-03T23:59:10.428Z,5.60
